Flugplatz Elz (EDFY)

Hier findest Du alle Informationen zum Flugplatz Elz (EDFY).

Informationen für Piloten zum Flugplatz Elz

Hier findest Du alle relevanten Informationen, die Du als Pilot benötigst, um Elz anzufliegen.

Flugplatz: Elz ICAO-Code: EDFY
Frequenz Turm: 123,600 Mhz GAFOR Gebiet: 42
Frequenz Ground: 123,600 Mhz Mogas: ja
Platzrunde: N 1400 ft Landegebühr: 6 €
Platzhöhe: - Sunrise: 07:17 Uhr UTC
Pisten: 08/26 - 750 m x 6 m, ASPH Sunset: 15:59 Uhr UTC

Mitglieder, die in Elz fliegen

Flugwetter am Flugplatz Elz

Die METAR Information stammen aus EDGS (31.64 km entfernt).

METAR Code:
2020/01/13 16:50
EDGS 131650Z 20011KT 6000 BKN002 03/03 Q1015

Flugschulen am Flugplatz Elz

Am Flugplatz Elz gibt es leider keine Flugschule.

Benachbarte Flugplätze und Flugschulen

Es gibt 17 weitere Flugplätze in einem Umkreis von 50 km um den Flugplatz Elz.

Jetzt anmelden

Passwort vergessen

Umfrage Archiv

Lasst Ihr Euch bei Überlandflügen von FIS begleiten?

Ja, immer!
43.4 %
Ja, unregelmäßig!
28.7 %
Ja, aber nur selten!
18.9 %
Nein, nie!
9.1 %
Stimmen: 143 | Diskussion
Anzeige: Roland Aircraft
Statistik Alle Mitglieder

Aktuell sind 11 Besucher online.

Anzeige: VFR Sprechfunk Simulator


Anzeige: Pocket FMS